createdAt,value
2022-12-13T00:01:54.262Z,55.54
2022-12-13T00:04:24.763Z,55.96
2022-12-13T00:06:54.951Z,55.59
2022-12-13T00:09:24.392Z,55.65
2022-12-13T00:11:53.688Z,55.52
2022-12-13T00:14:23.948Z,55.35
2022-12-13T00:16:52.391Z,55.30
2022-12-13T00:19:21.870Z,55.24
2022-12-13T00:21:50.725Z,55.12
2022-12-13T00:24:19.079Z,54.90
2022-12-13T00:26:47.588Z,55.15
2022-12-13T00:29:16.287Z,54.95
2022-12-13T00:32:01.622Z,55.00
2022-12-13T00:34:30.500Z,55.20
2022-12-13T00:37:05.348Z,55.01
2022-12-13T00:39:33.886Z,55.39
2022-12-13T00:42:02.549Z,55.20
2022-12-13T00:44:31.393Z,55.27
2022-12-13T00:47:01.209Z,55.47
2022-12-13T00:49:29.800Z,55.47
2022-12-13T00:51:58.211Z,55.42
2022-12-13T00:54:26.699Z,55.35
2022-12-13T00:56:55.749Z,55.28
2022-12-13T00:59:24.761Z,55.25
2022-12-13T01:01:54.445Z,55.40
2022-12-13T01:04:24.323Z,55.12
2022-12-13T01:06:54.030Z,55.29
2022-12-13T01:09:27.402Z,55.32
2022-12-13T01:11:59.148Z,55.51
2022-12-13T01:14:28.595Z,55.47
2022-12-13T01:16:57.447Z,55.56
2022-12-13T01:19:30.641Z,55.74
2022-12-13T01:22:00.808Z,55.59
2022-12-13T01:24:30.240Z,56.16
2022-12-13T01:26:59.079Z,55.57
2022-12-13T01:29:28.364Z,55.86
2022-12-13T01:31:57.071Z,55.57
2022-12-13T01:34:27.706Z,55.86
2022-12-13T01:36:58.685Z,55.53
2022-12-13T01:39:28.362Z,55.50
2022-12-13T01:42:00.146Z,55.36
2022-12-13T01:45:06.396Z,54.99
2022-12-13T01:47:40.639Z,54.75
2022-12-13T01:50:14.070Z,55.13
2022-12-13T01:52:42.527Z,54.88
2022-12-13T01:55:11.426Z,54.80
2022-12-13T01:57:45.590Z,54.83
2022-12-13T02:00:15.147Z,54.92
2022-12-13T02:02:43.758Z,55.05
2022-12-13T02:05:20.584Z,54.87
2022-12-13T02:07:51.188Z,54.61
2022-12-13T02:10:19.973Z,55.07
2022-12-13T02:12:48.858Z,54.80
2022-12-13T02:15:20.494Z,54.81
2022-12-13T02:18:12.755Z,54.59
2022-12-13T02:21:15.583Z,54.41
2022-12-13T02:24:28.566Z,54.99
2022-12-13T02:27:02.383Z,55.20
2022-12-13T02:30:01.578Z,54.86
2022-12-13T02:32:35.749Z,55.10
2022-12-13T02:35:10.306Z,55.44
2022-12-13T02:37:48.273Z,55.28
2022-12-13T02:40:23.670Z,55.54
2022-12-13T02:43:00.397Z,55.17
2022-12-13T02:45:32.965Z,55.31
2022-12-13T02:48:05.677Z,55.37
2022-12-13T02:50:35.469Z,55.25
2022-12-13T02:53:04.666Z,55.17
2022-12-13T02:55:36.024Z,55.05
2022-12-13T02:58:04.510Z,55.29
2022-12-13T03:00:43.190Z,55.28
2022-12-13T03:03:28.288Z,55.18
2022-12-13T03:06:24.144Z,54.96
2022-12-13T03:09:07.852Z,55.18
2022-12-13T03:12:05.307Z,54.76
2022-12-13T03:14:37.915Z,55.09
2022-12-13T03:17:08.956Z,54.84
2022-12-13T03:19:38.975Z,55.35
2022-12-13T03:22:08.497Z,55.21
2022-12-13T03:24:37.216Z,54.65
2022-12-13T03:27:06.136Z,54.60
2022-12-13T03:29:34.513Z,54.61
2022-12-13T03:32:03.829Z,54.73
2022-12-13T03:34:43.706Z,55.44
2022-12-13T03:37:14.953Z,55.15
2022-12-13T03:39:43.319Z,54.85
2022-12-13T03:42:11.657Z,54.64
2022-12-13T03:44:39.993Z,54.52
2022-12-13T03:47:08.437Z,54.74
2022-12-13T03:49:36.947Z,54.17
2022-12-13T03:52:05.436Z,54.22
2022-12-13T03:54:35.243Z,54.51
2022-12-13T03:57:03.659Z,54.21
2022-12-13T03:59:32.025Z,54.28
2022-12-13T04:02:00.846Z,54.42
2022-12-13T04:04:29.448Z,54.27
2022-12-13T04:06:58.419Z,54.82
2022-12-13T04:09:29.239Z,54.46
2022-12-13T04:12:16.761Z,54.68
2022-12-13T04:14:45.156Z,54.94
2022-12-13T04:17:13.484Z,55.24
2022-12-13T04:19:41.859Z,55.00
2022-12-13T04:22:10.207Z,54.78
2022-12-13T04:24:38.884Z,55.08
2022-12-13T04:27:08.705Z,54.64
2022-12-13T04:29:37.316Z,55.12
2022-12-13T04:32:26.721Z,54.61
2022-12-13T04:35:01.023Z,55.06
2022-12-13T04:37:30.422Z,54.92
2022-12-13T04:40:00.967Z,54.58
2022-12-13T04:42:31.727Z,54.47
2022-12-13T04:45:00.292Z,54.60
2022-12-13T04:47:28.652Z,54.83
2022-12-13T04:49:57.071Z,54.54
2022-12-13T04:52:25.525Z,54.87
2022-12-13T04:54:55.467Z,55.02
2022-12-13T04:57:24.900Z,55.11
2022-12-13T04:59:55.026Z,55.05
2022-12-13T05:02:24.349Z,55.04
2022-12-13T05:04:54.003Z,55.25
2022-12-13T05:07:23.156Z,55.01
2022-12-13T05:09:51.532Z,55.11
2022-12-13T05:12:22.599Z,55.26
2022-12-13T05:14:51.860Z,55.31
2022-12-13T05:17:22.241Z,55.21
2022-12-13T05:19:50.593Z,55.20
2022-12-13T05:22:20.847Z,55.17
2022-12-13T05:24:50.628Z,55.43
2022-12-13T05:27:25.017Z,55.07
2022-12-13T05:30:02.976Z,55.19
2022-12-13T05:32:44.120Z,55.35
2022-12-13T05:35:21.847Z,55.61
2022-12-13T05:37:53.543Z,55.19
2022-12-13T05:40:23.205Z,55.39
2022-12-13T05:42:51.768Z,55.93
2022-12-13T05:45:29.765Z,55.82
2022-12-13T05:47:59.809Z,55.83
2022-12-13T05:50:28.345Z,55.76
2022-12-13T05:52:56.842Z,55.55
2022-12-13T05:55:25.333Z,55.72
2022-12-13T05:57:53.819Z,55.26
2022-12-13T06:00:31.217Z,55.12
2022-12-13T06:03:02.125Z,55.56
2022-12-13T06:05:31.114Z,55.35
2022-12-13T06:08:00.578Z,55.45
2022-12-13T06:10:34.941Z,54.96
2022-12-13T06:13:21.634Z,54.91
2022-12-13T06:16:01.247Z,54.62
2022-12-13T06:18:32.791Z,55.33
2022-12-13T06:21:02.842Z,54.82
2022-12-13T06:23:32.265Z,55.32
2022-12-13T06:26:01.077Z,55.40
2022-12-13T06:28:29.385Z,55.03
2022-12-13T06:31:02.343Z,55.03
2022-12-13T06:33:35.800Z,55.17
2022-12-13T06:36:05.755Z,55.42
2022-12-13T06:38:34.497Z,55.29
2022-12-13T06:41:13.139Z,55.32
2022-12-13T06:43:44.207Z,55.44
2022-12-13T06:46:14.888Z,55.23
2022-12-13T06:48:45.205Z,55.03
2022-12-13T06:51:22.456Z,55.31
2022-12-13T06:53:51.912Z,55.00
2022-12-13T06:56:20.408Z,55.42
2022-12-13T06:58:49.006Z,55.19
2022-12-13T07:01:24.594Z,55.09
2022-12-13T07:03:56.309Z,55.13
2022-12-13T07:06:25.857Z,55.21
2022-12-13T07:08:56.951Z,55.06
2022-12-13T07:11:28.150Z,55.40
2022-12-13T07:13:58.487Z,55.11
2022-12-13T07:16:28.332Z,55.43
2022-12-13T07:19:00.732Z,55.43
2022-12-13T07:21:31.981Z,55.68
2022-12-13T07:24:01.360Z,55.11
2022-12-13T07:26:29.766Z,55.57
2022-12-13T07:28:58.262Z,55.43
2022-12-13T07:31:27.057Z,55.21
2022-12-13T07:33:55.759Z,54.66
2022-12-13T07:36:29.124Z,55.36
2022-12-13T07:38:57.833Z,55.03
2022-12-13T07:41:28.095Z,55.54
2022-12-13T07:43:57.175Z,55.29
2022-12-13T07:46:33.477Z,54.96
2022-12-13T07:49:03.809Z,55.37
2022-12-13T07:51:35.406Z,55.03
2022-12-13T07:54:06.490Z,55.18
2022-12-13T07:56:36.167Z,55.45
2022-12-13T07:59:04.746Z,55.63
2022-12-13T08:01:34.819Z,55.36
2022-12-13T08:04:03.985Z,55.34
2022-12-13T08:06:36.562Z,55.20
2022-12-13T08:09:07.129Z,55.26
2022-12-13T08:11:35.823Z,55.30
2022-12-13T08:14:04.395Z,55.39
2022-12-13T08:16:32.936Z,55.06
2022-12-13T08:19:04.274Z,55.00
2022-12-13T08:21:54.754Z,55.43
2022-12-13T08:24:24.772Z,55.29
2022-12-13T08:26:53.172Z,55.08
2022-12-13T08:29:22.318Z,55.44
2022-12-13T08:32:01.175Z,55.42
2022-12-13T08:34:30.225Z,55.43
2022-12-13T08:37:02.285Z,55.05
2022-12-13T08:39:34.479Z,55.34
2022-12-13T08:42:15.796Z,55.00
2022-12-13T08:44:48.117Z,55.17
2022-12-13T08:47:24.763Z,55.55
2022-12-13T08:49:55.273Z,55.13
2022-12-13T08:52:25.467Z,55.12
2022-12-13T08:54:54.215Z,55.22
2022-12-13T08:57:22.516Z,55.30
2022-12-13T08:59:51.156Z,55.34
2022-12-13T09:02:19.613Z,55.11
2022-12-13T09:04:48.036Z,55.26
2022-12-13T09:07:16.316Z,55.53
2022-12-13T09:09:46.389Z,55.41
2022-12-13T09:12:29.773Z,55.52
2022-12-13T09:15:01.308Z,55.71
2022-12-13T09:17:37.028Z,55.64
2022-12-13T09:20:28.086Z,55.89
2022-12-13T09:23:01.999Z,56.11
2022-12-13T09:25:37.448Z,55.55
2022-12-13T09:28:09.235Z,55.96
2022-12-13T09:30:37.997Z,55.73
2022-12-13T09:33:17.853Z,55.76
2022-12-13T09:35:56.001Z,55.90
2022-12-13T09:38:24.423Z,55.70
2022-12-13T09:40:58.455Z,55.79
2022-12-13T09:43:32.546Z,55.64
2022-12-13T09:46:13.501Z,56.07
2022-12-13T09:49:01.742Z,55.98
2022-12-13T09:51:41.544Z,56.01
2022-12-13T09:54:20.054Z,56.03
2022-12-13T09:56:51.888Z,55.81
2022-12-13T09:59:22.833Z,56.15
2022-12-13T10:01:51.826Z,56.10
2022-12-13T10:04:20.443Z,56.08
2022-12-13T10:06:53.363Z,56.20
2022-12-13T10:09:22.360Z,56.01
2022-12-13T10:11:53.838Z,55.99
2022-12-13T10:14:28.274Z,56.06
2022-12-13T10:16:59.426Z,56.43
2022-12-13T10:19:34.330Z,56.31
2022-12-13T10:22:05.203Z,56.08
2022-12-13T10:24:53.093Z,55.98
2022-12-13T10:27:28.956Z,55.99
2022-12-13T10:30:03.071Z,56.08
2022-12-13T10:32:37.718Z,55.68
2022-12-13T10:35:22.049Z,55.83
2022-12-13T10:37:50.668Z,55.59
2022-12-13T10:40:33.382Z,55.61
2022-12-13T10:43:18.434Z,55.75
2022-12-13T10:45:59.987Z,55.82
2022-12-13T10:48:38.306Z,55.58
2022-12-13T10:51:11.001Z,55.72
2022-12-13T10:53:47.406Z,55.61
2022-12-13T10:56:23.093Z,55.69
2022-12-13T10:59:16.508Z,55.30
2022-12-13T11:01:45.537Z,55.34
2022-12-13T11:04:27.964Z,54.95
2022-12-13T11:06:57.910Z,55.29
2022-12-13T11:09:29.012Z,55.13
2022-12-13T11:12:00.219Z,54.58
2022-12-13T11:14:40.317Z,55.04
2022-12-13T11:17:18.291Z,54.08
2022-12-13T11:19:50.818Z,54.33
2022-12-13T11:22:23.641Z,54.53
2022-12-13T11:24:54.460Z,54.33
2022-12-13T11:27:50.021Z,53.97
2022-12-13T11:30:24.023Z,53.82
2022-12-13T11:33:14.004Z,54.18
2022-12-13T11:35:56.265Z,54.23
2022-12-13T11:38:31.900Z,54.12
2022-12-13T11:41:07.693Z,53.91
2022-12-13T11:43:42.761Z,53.87
2022-12-13T11:46:22.356Z,54.17
2022-12-13T11:48:57.677Z,53.83
2022-12-13T11:51:32.458Z,53.58
2022-12-13T11:54:05.007Z,53.89
2022-12-13T11:56:38.840Z,53.66
2022-12-13T11:59:24.243Z,53.47
2022-12-13T12:02:04.926Z,53.53
2022-12-13T12:04:39.682Z,53.53
2022-12-13T12:07:31.960Z,53.62
2022-12-13T12:10:07.793Z,53.79
2022-12-13T12:12:37.821Z,53.57
2022-12-13T12:15:15.246Z,54.16
2022-12-13T12:17:46.589Z,53.21
2022-12-13T12:20:23.761Z,53.59
2022-12-13T12:23:01.470Z,53.48
2022-12-13T12:25:43.657Z,53.91
2022-12-13T12:28:22.618Z,53.55
2022-12-13T12:30:57.975Z,53.78
2022-12-13T12:33:38.414Z,53.76
2022-12-13T12:36:20.163Z,53.63
2022-12-13T12:39:20.763Z,53.66
2022-12-13T12:42:11.771Z,53.91
2022-12-13T12:44:53.409Z,54.01
2022-12-13T12:47:57.546Z,54.05
2022-12-13T12:50:37.249Z,53.79
2022-12-13T12:53:39.103Z,54.08
2022-12-13T12:56:21.311Z,53.83
2022-12-13T12:58:57.079Z,53.98
2022-12-13T13:01:43.912Z,53.89
2022-12-13T13:04:22.482Z,53.96
2022-12-13T13:07:01.381Z,53.75
2022-12-13T13:09:31.393Z,53.83
2022-12-13T13:12:29.415Z,54.25
2022-12-13T13:14:53.448Z,54.23
2022-12-13T13:17:55.102Z,54.09
2022-12-13T13:20:26.850Z,54.29
2022-12-13T13:23:31.961Z,53.94
2022-12-13T13:26:15.968Z,53.84
2022-12-13T13:28:42.739Z,54.06
2022-12-13T13:31:11.410Z,54.35
2022-12-13T13:33:47.072Z,54.36
2022-12-13T13:36:48.438Z,53.85
2022-12-13T13:39:20.253Z,54.09
2022-12-13T13:42:11.209Z,54.02
2022-12-13T13:44:55.046Z,53.77
2022-12-13T13:47:44.679Z,54.18
2022-12-13T13:50:53.672Z,54.34
2022-12-13T13:53:57.787Z,54.28
2022-12-13T14:00:24.748Z,54.47
2022-12-13T14:03:34.977Z,54.28
2022-12-13T14:06:49.554Z,54.56
2022-12-13T14:09:47.187Z,54.27
2022-12-13T14:12:57.434Z,54.35
2022-12-13T14:16:06.580Z,54.06
2022-12-13T14:19:24.648Z,54.18
2022-12-13T14:22:17.070Z,54.31
2022-12-13T14:24:55.332Z,54.10
2022-12-13T14:27:37.109Z,54.29
2022-12-13T14:30:26.979Z,54.54
2022-12-13T14:32:55.207Z,55.08
2022-12-13T14:35:27.557Z,54.97
2022-12-13T14:38:02.771Z,54.96
2022-12-13T14:40:34.208Z,55.09
2022-12-13T14:43:03.282Z,54.91
2022-12-13T14:45:33.707Z,54.96
2022-12-13T14:48:06.012Z,54.73
2022-12-13T14:50:36.853Z,54.72
2022-12-13T14:53:06.913Z,54.52
2022-12-13T14:55:37.607Z,54.76
2022-12-13T14:58:18.008Z,54.59
2022-12-13T15:00:47.372Z,54.84
2022-12-13T15:03:23.015Z,54.97
2022-12-13T15:05:55.688Z,55.18
2022-12-13T15:08:26.446Z,55.61
2022-12-13T15:10:57.279Z,55.74
2022-12-13T15:13:34.575Z,55.79
2022-12-13T15:16:10.536Z,56.01
2022-12-13T15:18:39.801Z,55.77
2022-12-13T15:21:22.148Z,55.63
2022-12-13T15:23:54.278Z,55.53
2022-12-13T15:26:29.085Z,55.89
2022-12-13T15:29:00.737Z,55.60
2022-12-13T15:31:29.667Z,55.40
2022-12-13T15:34:28.358Z,55.57
2022-12-13T15:36:59.456Z,55.66
2022-12-13T15:39:32.460Z,55.88
2022-12-13T15:42:01.443Z,55.97
2022-12-13T15:44:32.191Z,55.59
2022-12-13T15:47:04.245Z,55.30
2022-12-13T15:49:36.388Z,55.52
2022-12-13T15:52:08.332Z,55.57
2022-12-13T15:54:38.184Z,55.47
2022-12-13T15:57:15.789Z,55.33
2022-12-13T15:59:46.118Z,55.56
2022-12-13T16:02:18.466Z,55.50
2022-12-13T16:04:47.467Z,55.31
2022-12-13T16:07:26.188Z,55.36
2022-12-13T16:09:57.043Z,55.39
2022-12-13T16:12:30.679Z,55.64
2022-12-13T16:15:29.092Z,55.92
2022-12-13T16:18:07.997Z,55.87
2022-12-13T16:20:36.904Z,55.45
2022-12-13T16:23:08.951Z,55.82
2022-12-13T16:25:39.183Z,55.53
2022-12-13T16:28:08.095Z,55.80
2022-12-13T16:31:02.511Z,55.83
2022-12-13T16:33:31.380Z,55.97
2022-12-13T16:35:59.829Z,55.91
2022-12-13T16:38:29.553Z,55.86
2022-12-13T16:41:08.958Z,55.90
2022-12-13T16:43:41.513Z,55.67
2022-12-13T16:47:13.373Z,55.80
2022-12-13T16:49:06.730Z,55.71
2022-12-13T16:51:35.132Z,55.82
2022-12-13T16:54:03.555Z,56.09
2022-12-13T16:56:33.547Z,56.03
2022-12-13T16:59:02.183Z,56.12
2022-12-13T17:01:33.087Z,56.08
2022-12-13T17:04:05.439Z,56.16
2022-12-13T17:06:37.492Z,56.01
2022-12-13T17:09:06.032Z,55.95
2022-12-13T17:11:36.061Z,55.98
2022-12-13T17:14:05.914Z,55.81
2022-12-13T17:16:35.079Z,55.89
2022-12-13T17:19:04.505Z,55.88
2022-12-13T17:21:32.915Z,55.93
2022-12-13T17:24:03.019Z,56.08
2022-12-13T17:26:31.429Z,56.00
2022-12-13T17:29:01.676Z,55.94
2022-12-13T17:31:35.297Z,55.93
2022-12-13T17:34:04.717Z,56.07
2022-12-13T17:36:33.502Z,56.28
2022-12-13T17:39:03.081Z,56.08
2022-12-13T17:41:31.404Z,56.35
2022-12-13T17:44:01.811Z,56.06
2022-12-13T17:46:30.195Z,56.20
2022-12-13T17:48:58.869Z,56.27
2022-12-13T17:51:27.265Z,56.45
2022-12-13T17:53:55.762Z,56.32
2022-12-13T17:56:24.356Z,56.26
2022-12-13T17:58:52.761Z,56.10
2022-12-13T18:01:23.980Z,55.95
2022-12-13T18:03:54.988Z,55.85
2022-12-13T18:06:23.656Z,55.76
2022-12-13T18:08:52.531Z,56.05
2022-12-13T18:11:37.640Z,55.89
2022-12-13T18:14:07.684Z,55.62
2022-12-13T18:16:39.105Z,55.94
2022-12-13T18:19:10.098Z,55.95
2022-12-13T18:21:39.321Z,56.42
2022-12-13T18:24:08.716Z,56.25
2022-12-13T18:26:37.525Z,55.96
2022-12-13T18:29:06.440Z,55.85
2022-12-13T18:31:35.087Z,55.96
2022-12-13T18:34:05.152Z,55.77
2022-12-13T18:36:33.553Z,55.89
2022-12-13T18:39:02.269Z,55.85
2022-12-13T18:41:32.379Z,55.70
2022-12-13T18:44:02.197Z,55.99
2022-12-13T18:46:32.876Z,55.72
2022-12-13T18:49:01.411Z,55.90
2022-12-13T18:51:31.169Z,56.08
2022-12-13T18:54:00.724Z,55.85
2022-12-13T18:56:29.382Z,55.75
2022-12-13T18:58:59.648Z,55.76
2022-12-13T19:01:28.843Z,55.66
2022-12-13T19:03:57.690Z,55.98
2022-12-13T19:06:27.257Z,55.95
2022-12-13T19:08:58.795Z,55.98
2022-12-13T19:11:28.809Z,56.17
2022-12-13T19:13:57.743Z,56.12
2022-12-13T19:16:26.827Z,56.21
2022-12-13T19:18:55.591Z,55.80
2022-12-13T19:21:24.940Z,55.87
2022-12-13T19:23:57.717Z,55.92
2022-12-13T19:26:29.609Z,55.98
2022-12-13T19:28:59.481Z,55.78
2022-12-13T19:31:31.837Z,55.97
2022-12-13T19:34:01.965Z,55.75
2022-12-13T19:36:30.757Z,55.88
2022-12-13T19:38:59.246Z,55.59
2022-12-13T19:41:29.747Z,55.72
2022-12-13T19:43:58.231Z,55.67
2022-12-13T19:46:27.372Z,55.61
2022-12-13T19:48:57.509Z,55.49
2022-12-13T19:51:26.269Z,55.65
2022-12-13T19:53:55.020Z,55.48
2022-12-13T19:56:24.174Z,55.73
2022-12-13T19:58:54.282Z,56.05
2022-12-13T20:01:22.806Z,55.85
2022-12-13T20:03:51.471Z,56.17
2022-12-13T20:06:22.269Z,55.95
2022-12-13T20:08:51.457Z,55.88
2022-12-13T20:11:22.177Z,56.14
2022-12-13T20:13:54.651Z,55.86
2022-12-13T20:16:26.929Z,56.01
2022-12-13T20:18:57.787Z,55.78
2022-12-13T20:21:27.222Z,55.90
2022-12-13T20:23:56.097Z,55.98
2022-12-13T20:26:25.892Z,55.87
2022-12-13T20:28:54.712Z,55.78
2022-12-13T20:31:27.022Z,55.94
2022-12-13T20:33:57.051Z,56.01
2022-12-13T20:36:27.902Z,55.83
2022-12-13T20:38:58.021Z,56.11
2022-12-13T20:41:28.266Z,55.98
2022-12-13T20:43:58.264Z,55.84
2022-12-13T20:46:29.160Z,55.83
2022-12-13T20:48:59.262Z,55.56
2022-12-13T20:51:29.781Z,55.72
2022-12-13T20:53:58.888Z,55.72
2022-12-13T20:56:28.916Z,55.79
2022-12-13T20:58:57.529Z,55.79
2022-12-13T21:01:30.534Z,55.72
2022-12-13T21:04:01.423Z,55.96
2022-12-13T21:06:30.570Z,55.65
2022-12-13T21:09:02.990Z,55.65
2022-12-13T21:11:33.081Z,55.82
2022-12-13T21:14:09.131Z,55.60
2022-12-13T21:16:44.440Z,55.49
2022-12-13T21:19:14.909Z,55.64
2022-12-13T21:21:43.412Z,55.42
2022-12-13T21:24:15.145Z,55.41
2022-12-13T21:26:43.543Z,55.35
2022-12-13T21:29:12.993Z,55.55
2022-12-13T21:31:48.866Z,55.44
2022-12-13T21:34:18.990Z,55.67
2022-12-13T21:36:48.877Z,55.93
2022-12-13T21:39:18.559Z,55.78
2022-12-13T21:41:47.351Z,55.57
2022-12-13T21:44:17.122Z,55.61
2022-12-13T21:47:11.244Z,55.20
2022-12-13T21:49:35.295Z,55.67
2022-12-13T21:52:03.677Z,55.48
2022-12-13T21:54:32.321Z,55.52
2022-12-13T21:57:18.298Z,55.69
2022-12-13T21:59:47.491Z,55.71
2022-12-13T22:02:19.366Z,55.36
2022-12-13T22:04:49.621Z,55.45
2022-12-13T22:07:19.990Z,55.59
2022-12-13T22:09:49.162Z,55.69
2022-12-13T22:12:22.765Z,55.58
2022-12-13T22:14:52.164Z,55.43
2022-12-13T22:17:29.670Z,55.14
2022-12-13T22:20:03.422Z,55.73
2022-12-13T22:22:31.794Z,55.44
2022-12-13T22:25:00.349Z,55.64
2022-12-13T22:27:28.790Z,55.66
2022-12-13T22:29:58.704Z,55.84
2022-12-13T22:32:31.308Z,55.43
2022-12-13T22:35:00.513Z,55.79
2022-12-13T22:37:28.859Z,55.63
2022-12-13T22:39:57.282Z,55.42
2022-12-13T22:42:25.758Z,55.51
2022-12-13T22:44:54.121Z,55.49
2022-12-13T22:47:22.495Z,55.44
2022-12-13T22:49:52.350Z,55.35
2022-12-13T22:52:20.685Z,55.62
2022-12-13T22:54:49.016Z,55.59
2022-12-13T22:57:17.379Z,56.07
2022-12-13T22:59:45.783Z,56.06
2022-12-13T23:02:14.170Z,56.03
2022-12-13T23:04:42.586Z,56.18
2022-12-13T23:07:12.325Z,56.07
2022-12-13T23:09:40.784Z,55.95
2022-12-13T23:12:26.803Z,56.19
2022-12-13T23:14:55.324Z,55.88
2022-12-13T23:17:23.619Z,55.80
2022-12-13T23:19:53.642Z,56.03
2022-12-13T23:22:25.219Z,56.03
2022-12-13T23:24:54.536Z,55.74
2022-12-13T23:27:24.377Z,55.61
2022-12-13T23:29:53.365Z,55.81
2022-12-13T23:32:21.641Z,55.89
2022-12-13T23:34:50.030Z,55.71
2022-12-13T23:37:18.365Z,56.02
2022-12-13T23:39:48.720Z,55.76
2022-12-13T23:42:17.155Z,56.00
2022-12-13T23:44:45.581Z,56.01
2022-12-13T23:47:13.974Z,56.14
2022-12-13T23:49:42.329Z,56.21
2022-12-13T23:52:10.954Z,56.16
2022-12-13T23:54:39.657Z,56.25
2022-12-13T23:57:09.382Z,56.22
2022-12-13T23:59:37.722Z,56.32
